sensor_id;sensor_type;location;lat;lon;timestamp;P1;durP1;ratioP1;P2;durP2;ratioP2
49061;SDS011;34873;49.142;9.118;2023-12-22T00:01:54;0.00;;;0.00;;
49061;SDS011;34873;49.142;9.118;2023-12-22T00:04:24;0.00;;;0.00;;
49061;SDS011;34873;49.142;9.118;2023-12-22T00:06:50;0.00;;;0.00;;
49061;SDS011;34873;49.142;9.118;2023-12-22T00:09:17;0.00;;;0.00;;
49061;SDS011;34873;49.142;9.118;2023-12-22T00:11:43;0.00;;;0.00;;
49061;SDS011;34873;49.142;9.118;2023-12-22T00:14:08;0.00;;;0.00;;
49061;SDS011;34873;49.142;9.118;2023-12-22T00:16:36;0.00;;;0.00;;
49061;SDS011;34873;49.142;9.118;2023-12-22T00:19:04;0.00;;;0.00;;
49061;SDS011;34873;49.142;9.118;2023-12-22T00:21:32;0.00;;;0.00;;
49061;SDS011;34873;49.142;9.118;2023-12-22T00:23:58;0.00;;;0.00;;
49061;SDS011;34873;49.142;9.118;2023-12-22T00:26:23;0.00;;;0.00;;
49061;SDS011;34873;49.142;9.118;2023-12-22T00:28:51;0.00;;;0.00;;
49061;SDS011;34873;49.142;9.118;2023-12-22T00:31:16;0.00;;;0.00;;
49061;SDS011;34873;49.142;9.118;2023-12-22T00:33:42;1.08;;;0.00;;
49061;SDS011;34873;49.142;9.118;2023-12-22T00:36:07;0.00;;;0.00;;
49061;SDS011;34873;49.142;9.118;2023-12-22T00:38:33;0.00;;;0.00;;
49061;SDS011;34873;49.142;9.118;2023-12-22T00:40:59;5.03;;;0.10;;
49061;SDS011;34873;49.142;9.118;2023-12-22T00:43:24;0.00;;;0.00;;
49061;SDS011;34873;49.142;9.118;2023-12-22T00:45:52;0.00;;;0.00;;
49061;SDS011;34873;49.142;9.118;2023-12-22T00:48:17;0.25;;;0.00;;
49061;SDS011;34873;49.142;9.118;2023-12-22T00:50:43;0.00;;;0.00;;
49061;SDS011;34873;49.142;9.118;2023-12-22T00:53:11;0.00;;;0.00;;
49061;SDS011;34873;49.142;9.118;2023-12-22T00:55:39;0.00;;;0.00;;
49061;SDS011;34873;49.142;9.118;2023-12-22T00:58:07;0.00;;;0.00;;
49061;SDS011;34873;49.142;9.118;2023-12-22T01:00:32;0.00;;;0.00;;
49061;SDS011;34873;49.142;9.118;2023-12-22T01:02:57;0.00;;;0.00;;
49061;SDS011;34873;49.142;9.118;2023-12-22T01:05:23;0.00;;;0.00;;
49061;SDS011;34873;49.142;9.118;2023-12-22T01:07:48;0.00;;;0.00;;
49061;SDS011;34873;49.142;9.118;2023-12-22T01:10:14;0.00;;;0.00;;
49061;SDS011;34873;49.142;9.118;2023-12-22T01:12:41;0.00;;;0.00;;
49061;SDS011;34873;49.142;9.118;2023-12-22T01:15:07;0.00;;;0.00;;
49061;SDS011;34873;49.142;9.118;2023-12-22T01:17:33;0.00;;;0.00;;
49061;SDS011;34873;49.142;9.118;2023-12-22T01:20:00;0.00;;;0.00;;
49061;SDS011;34873;49.142;9.118;2023-12-22T01:22:31;0.08;;;0.00;;
49061;SDS011;34873;49.142;9.118;2023-12-22T01:24:58;0.00;;;0.00;;
49061;SDS011;34873;49.142;9.118;2023-12-22T01:27:23;0.00;;;0.00;;
49061;SDS011;34873;49.142;9.118;2023-12-22T01:29:51;0.17;;;0.00;;
49061;SDS011;34873;49.142;9.118;2023-12-22T01:32:16;0.00;;;0.00;;
49061;SDS011;34873;49.142;9.118;2023-12-22T01:34:44;0.00;;;0.00;;
49061;SDS011;34873;49.142;9.118;2023-12-22T01:37:12;0.00;;;0.00;;
49061;SDS011;34873;49.142;9.118;2023-12-22T01:39:40;0.00;;;0.00;;
49061;SDS011;34873;49.142;9.118;2023-12-22T01:42:07;0.00;;;0.00;;
49061;SDS011;34873;49.142;9.118;2023-12-22T01:44:33;0.00;;;0.00;;
49061;SDS011;34873;49.142;9.118;2023-12-22T01:47:01;0.00;;;0.00;;
49061;SDS011;34873;49.142;9.118;2023-12-22T01:49:26;0.00;;;0.00;;
49061;SDS011;34873;49.142;9.118;2023-12-22T01:51:52;0.00;;;0.00;;
49061;SDS011;34873;49.142;9.118;2023-12-22T01:54:20;0.10;;;0.00;;
49061;SDS011;34873;49.142;9.118;2023-12-22T01:56:46;0.00;;;0.00;;
49061;SDS011;34873;49.142;9.118;2023-12-22T01:59:12;0.00;;;0.00;;
49061;SDS011;34873;49.142;9.118;2023-12-22T02:01:39;0.35;;;0.00;;
49061;SDS011;34873;49.142;9.118;2023-12-22T02:04:06;0.00;;;0.00;;
49061;SDS011;34873;49.142;9.118;2023-12-22T02:06:31;0.00;;;0.00;;
49061;SDS011;34873;49.142;9.118;2023-12-22T02:08:57;0.00;;;0.00;;
49061;SDS011;34873;49.142;9.118;2023-12-22T02:11:29;0.20;;;0.00;;
49061;SDS011;34873;49.142;9.118;2023-12-22T02:13:54;2.85;;;0.00;;
49061;SDS011;34873;49.142;9.118;2023-12-22T02:16:28;0.00;;;0.00;;
49061;SDS011;34873;49.142;9.118;2023-12-22T02:19:09;0.00;;;0.00;;
49061;SDS011;34873;49.142;9.118;2023-12-22T02:24:33;0.00;;;0.00;;
49061;SDS011;34873;49.142;9.118;2023-12-22T02:27:09;0.00;;;0.00;;
49061;SDS011;34873;49.142;9.118;2023-12-22T02:29:42;0.10;;;0.00;;
49061;SDS011;34873;49.142;9.118;2023-12-22T02:32:17;1.30;;;0.00;;
49061;SDS011;34873;49.142;9.118;2023-12-22T02:34:50;0.00;;;0.00;;
49061;SDS011;34873;49.142;9.118;2023-12-22T02:37:18;0.00;;;0.00;;
49061;SDS011;34873;49.142;9.118;2023-12-22T02:39:45;0.75;;;0.00;;
49061;SDS011;34873;49.142;9.118;2023-12-22T02:42:13;0.00;;;0.00;;
49061;SDS011;34873;49.142;9.118;2023-12-22T02:44:39;0.00;;;0.00;;
49061;SDS011;34873;49.142;9.118;2023-12-22T02:47:04;0.00;;;0.00;;
49061;SDS011;34873;49.142;9.118;2023-12-22T02:49:30;0.00;;;0.00;;
49061;SDS011;34873;49.142;9.118;2023-12-22T02:51:55;0.00;;;0.00;;
49061;SDS011;34873;49.142;9.118;2023-12-22T02:54:20;0.00;;;0.00;;
49061;SDS011;34873;49.142;9.118;2023-12-22T02:56:48;0.00;;;0.00;;
49061;SDS011;34873;49.142;9.118;2023-12-22T02:59:14;0.00;;;0.00;;
49061;SDS011;34873;49.142;9.118;2023-12-22T03:01:44;0.00;;;0.00;;
49061;SDS011;34873;49.142;9.118;2023-12-22T03:04:14;0.00;;;0.00;;
49061;SDS011;34873;49.142;9.118;2023-12-22T03:06:42;0.10;;;0.00;;
49061;SDS011;34873;49.142;9.118;2023-12-22T03:09:07;0.00;;;0.00;;
49061;SDS011;34873;49.142;9.118;2023-12-22T03:11:33;0.00;;;0.00;;
49061;SDS011;34873;49.142;9.118;2023-12-22T03:13:58;0.00;;;0.00;;
49061;SDS011;34873;49.142;9.118;2023-12-22T03:16:24;0.00;;;0.00;;
49061;SDS011;34873;49.142;9.118;2023-12-22T03:18:49;0.10;;;0.00;;
49061;SDS011;34873;49.142;9.118;2023-12-22T03:21:17;0.05;;;0.00;;
49061;SDS011;34873;49.142;9.118;2023-12-22T03:23:45;0.00;;;0.00;;
49061;SDS011;34873;49.142;9.118;2023-12-22T03:26:11;0.00;;;0.00;;
49061;SDS011;34873;49.142;9.118;2023-12-22T03:28:36;0.00;;;0.00;;
49061;SDS011;34873;49.142;9.118;2023-12-22T03:31:02;0.10;;;0.00;;
49061;SDS011;34873;49.142;9.118;2023-12-22T03:33:28;0.00;;;0.00;;
49061;SDS011;34873;49.142;9.118;2023-12-22T03:35:55;0.03;;;0.00;;
49061;SDS011;34873;49.142;9.118;2023-12-22T03:38:25;0.00;;;0.00;;
49061;SDS011;34873;49.142;9.118;2023-12-22T03:40:53;0.05;;;0.05;;
49061;SDS011;34873;49.142;9.118;2023-12-22T03:43:19;0.10;;;0.00;;
49061;SDS011;34873;49.142;9.118;2023-12-22T03:45:44;0.00;;;0.00;;
49061;SDS011;34873;49.142;9.118;2023-12-22T03:48:12;0.00;;;0.00;;
49061;SDS011;34873;49.142;9.118;2023-12-22T03:50:37;0.00;;;0.00;;
49061;SDS011;34873;49.142;9.118;2023-12-22T03:53:03;0.00;;;0.00;;
49061;SDS011;34873;49.142;9.118;2023-12-22T03:55:28;0.32;;;0.00;;
49061;SDS011;34873;49.142;9.118;2023-12-22T03:57:54;0.00;;;0.00;;
49061;SDS011;34873;49.142;9.118;2023-12-22T04:00:19;0.00;;;0.00;;
49061;SDS011;34873;49.142;9.118;2023-12-22T04:02:44;0.43;;;0.00;;
49061;SDS011;34873;49.142;9.118;2023-12-22T04:05:12;0.00;;;0.00;;
49061;SDS011;34873;49.142;9.118;2023-12-22T04:07:40;0.00;;;0.00;;
49061;SDS011;34873;49.142;9.118;2023-12-22T04:10:05;0.00;;;0.00;;
49061;SDS011;34873;49.142;9.118;2023-12-22T04:12:31;0.00;;;0.00;;
49061;SDS011;34873;49.142;9.118;2023-12-22T04:14:56;0.10;;;0.00;;
49061;SDS011;34873;49.142;9.118;2023-12-22T04:17:22;0.00;;;0.00;;
49061;SDS011;34873;49.142;9.118;2023-12-22T04:19:47;0.00;;;0.00;;
49061;SDS011;34873;49.142;9.118;2023-12-22T04:22:15;0.00;;;0.00;;
49061;SDS011;34873;49.142;9.118;2023-12-22T04:24:43;2.17;;;0.10;;
49061;SDS011;34873;49.142;9.118;2023-12-22T04:27:08;0.10;;;0.00;;
49061;SDS011;34873;49.142;9.118;2023-12-22T04:29:34;0.00;;;0.00;;
49061;SDS011;34873;49.142;9.118;2023-12-22T04:31:59;0.10;;;0.00;;
49061;SDS011;34873;49.142;9.118;2023-12-22T04:34:24;0.00;;;0.00;;
49061;SDS011;34873;49.142;9.118;2023-12-22T04:36:50;0.00;;;0.00;;
49061;SDS011;34873;49.142;9.118;2023-12-22T04:39:17;0.00;;;0.00;;
49061;SDS011;34873;49.142;9.118;2023-12-22T04:41:43;0.28;;;0.00;;
49061;SDS011;34873;49.142;9.118;2023-12-22T04:44:08;0.00;;;0.00;;
49061;SDS011;34873;49.142;9.118;2023-12-22T04:46:36;0.00;;;0.00;;
49061;SDS011;34873;49.142;9.118;2023-12-22T04:49:01;0.00;;;0.00;;
49061;SDS011;34873;49.142;9.118;2023-12-22T04:51:27;0.00;;;0.00;;
49061;SDS011;34873;49.142;9.118;2023-12-22T04:53:52;0.00;;;0.00;;
49061;SDS011;34873;49.142;9.118;2023-12-22T04:56:17;0.88;;;0.00;;
49061;SDS011;34873;49.142;9.118;2023-12-22T04:58:43;0.00;;;0.00;;
49061;SDS011;34873;49.142;9.118;2023-12-22T05:01:08;1.27;;;0.00;;
49061;SDS011;34873;49.142;9.118;2023-12-22T05:03:36;0.70;;;0.00;;
49061;SDS011;34873;49.142;9.118;2023-12-22T05:06:01;0.05;;;0.00;;
49061;SDS011;34873;49.142;9.118;2023-12-22T05:08:29;0.00;;;0.00;;
49061;SDS011;34873;49.142;9.118;2023-12-22T05:10:55;0.00;;;0.00;;
49061;SDS011;34873;49.142;9.118;2023-12-22T05:13:25;0.00;;;0.00;;
49061;SDS011;34873;49.142;9.118;2023-12-22T05:15:52;0.00;;;0.00;;
49061;SDS011;34873;49.142;9.118;2023-12-22T05:18:20;0.00;;;0.00;;
49061;SDS011;34873;49.142;9.118;2023-12-22T05:20:48;0.00;;;0.00;;
49061;SDS011;34873;49.142;9.118;2023-12-22T05:23:16;0.00;;;0.00;;
49061;SDS011;34873;49.142;9.118;2023-12-22T05:25:41;0.05;;;0.00;;
49061;SDS011;34873;49.142;9.118;2023-12-22T05:28:07;0.00;;;0.00;;
49061;SDS011;34873;49.142;9.118;2023-12-22T05:30:32;0.10;;;0.00;;
49061;SDS011;34873;49.142;9.118;2023-12-22T05:33:00;0.00;;;0.00;;
49061;SDS011;34873;49.142;9.118;2023-12-22T05:35:25;0.00;;;0.00;;
49061;SDS011;34873;49.142;9.118;2023-12-22T05:37:51;0.00;;;0.00;;
49061;SDS011;34873;49.142;9.118;2023-12-22T05:40:16;0.00;;;0.00;;
49061;SDS011;34873;49.142;9.118;2023-12-22T05:42:41;0.00;;;0.00;;
49061;SDS011;34873;49.142;9.118;2023-12-22T05:45:07;0.22;;;0.00;;
49061;SDS011;34873;49.142;9.118;2023-12-22T05:47:36;0.00;;;0.00;;
49061;SDS011;34873;49.142;9.118;2023-12-22T05:50:04;0.55;;;0.00;;
49061;SDS011;34873;49.142;9.118;2023-12-22T05:52:35;0.00;;;0.00;;
49061;SDS011;34873;49.142;9.118;2023-12-22T05:55:03;1.40;;;0.00;;
49061;SDS011;34873;49.142;9.118;2023-12-22T05:57:29;0.17;;;0.00;;
49061;SDS011;34873;49.142;9.118;2023-12-22T05:59:54;0.00;;;0.00;;
49061;SDS011;34873;49.142;9.118;2023-12-22T06:02:22;0.05;;;0.00;;
49061;SDS011;34873;49.142;9.118;2023-12-22T06:04:50;0.00;;;0.00;;
49061;SDS011;34873;49.142;9.118;2023-12-22T06:07:17;0.25;;;0.00;;
49061;SDS011;34873;49.142;9.118;2023-12-22T06:09:44;0.10;;;0.03;;
49061;SDS011;34873;49.142;9.118;2023-12-22T06:12:10;0.08;;;0.00;;
49061;SDS011;34873;49.142;9.118;2023-12-22T06:14:35;0.20;;;0.00;;
49061;SDS011;34873;49.142;9.118;2023-12-22T06:17:03;0.00;;;0.00;;
49061;SDS011;34873;49.142;9.118;2023-12-22T06:19:35;0.47;;;0.00;;
49061;SDS011;34873;49.142;9.118;2023-12-22T06:22:05;0.38;;;0.00;;
49061;SDS011;34873;49.142;9.118;2023-12-22T06:24:34;0.10;;;0.00;;
49061;SDS011;34873;49.142;9.118;2023-12-22T06:27:00;0.00;;;0.00;;
49061;SDS011;34873;49.142;9.118;2023-12-22T06:29:26;0.00;;;0.00;;
49061;SDS011;34873;49.142;9.118;2023-12-22T06:31:55;0.10;;;0.00;;
49061;SDS011;34873;49.142;9.118;2023-12-22T06:34:21;0.30;;;0.00;;
49061;SDS011;34873;49.142;9.118;2023-12-22T06:36:47;0.30;;;0.00;;
49061;SDS011;34873;49.142;9.118;2023-12-22T06:39:12;0.10;;;0.00;;
49061;SDS011;34873;49.142;9.118;2023-12-22T06:41:40;0.00;;;0.00;;
49061;SDS011;34873;49.142;9.118;2023-12-22T06:44:07;0.00;;;0.00;;
49061;SDS011;34873;49.142;9.118;2023-12-22T06:46:38;0.00;;;0.00;;
49061;SDS011;34873;49.142;9.118;2023-12-22T06:49:03;0.00;;;0.00;;
49061;SDS011;34873;49.142;9.118;2023-12-22T06:51:30;0.20;;;0.00;;
49061;SDS011;34873;49.142;9.118;2023-12-22T06:53:58;0.35;;;0.15;;
49061;SDS011;34873;49.142;9.118;2023-12-22T06:56:33;0.00;;;0.00;;
49061;SDS011;34873;49.142;9.118;2023-12-22T06:59:02;0.00;;;0.00;;
49061;SDS011;34873;49.142;9.118;2023-12-22T07:01:28;0.45;;;0.00;;
49061;SDS011;34873;49.142;9.118;2023-12-22T07:03:57;0.40;;;0.00;;
49061;SDS011;34873;49.142;9.118;2023-12-22T07:06:26;0.40;;;0.00;;
49061;SDS011;34873;49.142;9.118;2023-12-22T07:11:37;0.00;;;0.00;;
49061;SDS011;34873;49.142;9.118;2023-12-22T07:14:06;0.30;;;0.00;;
49061;SDS011;34873;49.142;9.118;2023-12-22T07:16:35;0.00;;;0.00;;
49061;SDS011;34873;49.142;9.118;2023-12-22T07:19:01;0.03;;;0.00;;
49061;SDS011;34873;49.142;9.118;2023-12-22T07:21:26;0.10;;;0.10;;
49061;SDS011;34873;49.142;9.118;2023-12-22T07:23:54;0.25;;;0.00;;
49061;SDS011;34873;49.142;9.118;2023-12-22T07:26:23;0.73;;;0.00;;
49061;SDS011;34873;49.142;9.118;2023-12-22T07:28:49;0.00;;;0.00;;
49061;SDS011;34873;49.142;9.118;2023-12-22T07:31:15;0.30;;;0.00;;
49061;SDS011;34873;49.142;9.118;2023-12-22T07:33:40;0.00;;;0.00;;
49061;SDS011;34873;49.142;9.118;2023-12-22T07:36:11;6.13;;;0.00;;
49061;SDS011;34873;49.142;9.118;2023-12-22T07:38:41;0.80;;;0.00;;
49061;SDS011;34873;49.142;9.118;2023-12-22T07:41:09;0.30;;;0.10;;
49061;SDS011;34873;49.142;9.118;2023-12-22T07:43:34;0.00;;;0.00;;
49061;SDS011;34873;49.142;9.118;2023-12-22T07:46:02;0.45;;;0.00;;
49061;SDS011;34873;49.142;9.118;2023-12-22T07:48:31;0.08;;;0.00;;
49061;SDS011;34873;49.142;9.118;2023-12-22T07:50:59;0.00;;;0.00;;
49061;SDS011;34873;49.142;9.118;2023-12-22T07:53:31;0.30;;;0.00;;
49061;SDS011;34873;49.142;9.118;2023-12-22T07:55:57;0.00;;;0.00;;
49061;SDS011;34873;49.142;9.118;2023-12-22T07:58:24;0.30;;;0.00;;
49061;SDS011;34873;49.142;9.118;2023-12-22T08:00:54;0.00;;;0.00;;
49061;SDS011;34873;49.142;9.118;2023-12-22T08:03:20;0.40;;;0.00;;
49061;SDS011;34873;49.142;9.118;2023-12-22T08:05:45;0.30;;;0.00;;
49061;SDS011;34873;49.142;9.118;2023-12-22T08:08:12;0.28;;;0.00;;
49061;SDS011;34873;49.142;9.118;2023-12-22T08:10:37;0.43;;;0.00;;
49061;SDS011;34873;49.142;9.118;2023-12-22T08:13:03;0.10;;;0.00;;
49061;SDS011;34873;49.142;9.118;2023-12-22T08:15:28;0.00;;;0.00;;
49061;SDS011;34873;49.142;9.118;2023-12-22T08:17:54;0.00;;;0.00;;
49061;SDS011;34873;49.142;9.118;2023-12-22T08:20:21;0.10;;;0.00;;
49061;SDS011;34873;49.142;9.118;2023-12-22T08:22:47;0.00;;;0.00;;
49061;SDS011;34873;49.142;9.118;2023-12-22T08:25:13;0.52;;;0.00;;
49061;SDS011;34873;49.142;9.118;2023-12-22T08:27:40;0.00;;;0.00;;
49061;SDS011;34873;49.142;9.118;2023-12-22T08:30:06;0.00;;;0.00;;
49061;SDS011;34873;49.142;9.118;2023-12-22T08:32:32;0.00;;;0.00;;
49061;SDS011;34873;49.142;9.118;2023-12-22T08:34:59;0.10;;;0.00;;
49061;SDS011;34873;49.142;9.118;2023-12-22T08:37:25;0.00;;;0.00;;
49061;SDS011;34873;49.142;9.118;2023-12-22T08:39:53;0.25;;;0.00;;
49061;SDS011;34873;49.142;9.118;2023-12-22T08:42:20;0.10;;;0.00;;
49061;SDS011;34873;49.142;9.118;2023-12-22T08:44:49;0.00;;;0.00;;
49061;SDS011;34873;49.142;9.118;2023-12-22T08:47:15;0.00;;;0.00;;
49061;SDS011;34873;49.142;9.118;2023-12-22T08:49:40;0.20;;;0.00;;
49061;SDS011;34873;49.142;9.118;2023-12-22T08:52:07;0.10;;;0.00;;
49061;SDS011;34873;49.142;9.118;2023-12-22T08:54:35;0.32;;;0.00;;
49061;SDS011;34873;49.142;9.118;2023-12-22T08:57:02;0.25;;;0.00;;
49061;SDS011;34873;49.142;9.118;2023-12-22T08:59:33;0.00;;;0.00;;
49061;SDS011;34873;49.142;9.118;2023-12-22T09:02:03;0.77;;;0.03;;
49061;SDS011;34873;49.142;9.118;2023-12-22T09:04:33;0.15;;;0.00;;
49061;SDS011;34873;49.142;9.118;2023-12-22T09:06:59;0.80;;;0.00;;
49061;SDS011;34873;49.142;9.118;2023-12-22T09:09:26;0.00;;;0.00;;
49061;SDS011;34873;49.142;9.118;2023-12-22T09:11:55;0.00;;;0.00;;
49061;SDS011;34873;49.142;9.118;2023-12-22T09:14:23;0.00;;;0.00;;
49061;SDS011;34873;49.142;9.118;2023-12-22T09:16:49;1.00;;;0.00;;
49061;SDS011;34873;49.142;9.118;2023-12-22T09:19:18;0.32;;;0.28;;
49061;SDS011;34873;49.142;9.118;2023-12-22T09:21:46;0.00;;;0.00;;
49061;SDS011;34873;49.142;9.118;2023-12-22T09:24:11;0.47;;;0.43;;
49061;SDS011;34873;49.142;9.118;2023-12-22T09:26:37;0.10;;;0.00;;
49061;SDS011;34873;49.142;9.118;2023-12-22T09:29:03;0.20;;;0.00;;
49061;SDS011;34873;49.142;9.118;2023-12-22T09:31:28;0.00;;;0.00;;
49061;SDS011;34873;49.142;9.118;2023-12-22T09:33:56;0.03;;;0.00;;
49061;SDS011;34873;49.142;9.118;2023-12-22T09:36:22;0.85;;;0.00;;
49061;SDS011;34873;49.142;9.118;2023-12-22T09:38:52;2.10;;;0.10;;
49061;SDS011;34873;49.142;9.118;2023-12-22T09:41:18;0.00;;;0.00;;
49061;SDS011;34873;49.142;9.118;2023-12-22T09:43:46;0.00;;;0.00;;
49061;SDS011;34873;49.142;9.118;2023-12-22T09:46:17;0.28;;;0.00;;
49061;SDS011;34873;49.142;9.118;2023-12-22T09:48:46;0.10;;;0.00;;
49061;SDS011;34873;49.142;9.118;2023-12-22T09:51:12;0.05;;;0.00;;
49061;SDS011;34873;49.142;9.118;2023-12-22T09:53:41;0.05;;;0.00;;
49061;SDS011;34873;49.142;9.118;2023-12-22T09:56:10;0.20;;;0.10;;
49061;SDS011;34873;49.142;9.118;2023-12-22T09:58:36;0.30;;;0.00;;
49061;SDS011;34873;49.142;9.118;2023-12-22T10:01:05;0.05;;;0.00;;
49061;SDS011;34873;49.142;9.118;2023-12-22T10:03:33;1.13;;;0.00;;
49061;SDS011;34873;49.142;9.118;2023-12-22T10:05:59;0.32;;;0.00;;
49061;SDS011;34873;49.142;9.118;2023-12-22T10:08:25;0.98;;;0.10;;
49061;SDS011;34873;49.142;9.118;2023-12-22T10:10:54;0.05;;;0.03;;
49061;SDS011;34873;49.142;9.118;2023-12-22T10:13:20;0.00;;;0.00;;
49061;SDS011;34873;49.142;9.118;2023-12-22T10:15:46;1.30;;;0.00;;
49061;SDS011;34873;49.142;9.118;2023-12-22T10:18:15;0.00;;;0.00;;
49061;SDS011;34873;49.142;9.118;2023-12-22T10:20:45;0.00;;;0.00;;
49061;SDS011;34873;49.142;9.118;2023-12-22T10:23:11;1.17;;;0.10;;
49061;SDS011;34873;49.142;9.118;2023-12-22T10:25:40;1.13;;;0.10;;
49061;SDS011;34873;49.142;9.118;2023-12-22T10:28:05;7.78;;;1.25;;
49061;SDS011;34873;49.142;9.118;2023-12-22T10:30:41;3.58;;;1.10;;
49061;SDS011;34873;49.142;9.118;2023-12-22T10:33:07;7.88;;;1.65;;
49061;SDS011;34873;49.142;9.118;2023-12-22T10:35:32;14.13;;;2.90;;
49061;SDS011;34873;49.142;9.118;2023-12-22T10:37:58;11.15;;;2.40;;
49061;SDS011;34873;49.142;9.118;2023-12-22T10:40:24;8.85;;;2.08;;
49061;SDS011;34873;49.142;9.118;2023-12-22T10:42:50;5.43;;;1.83;;
49061;SDS011;34873;49.142;9.118;2023-12-22T10:45:17;6.90;;;1.50;;
49061;SDS011;34873;49.142;9.118;2023-12-22T10:47:43;6.68;;;1.35;;
49061;SDS011;34873;49.142;9.118;2023-12-22T10:50:14;4.25;;;0.90;;
49061;SDS011;34873;49.142;9.118;2023-12-22T10:52:43;4.75;;;1.17;;
49061;SDS011;34873;49.142;9.118;2023-12-22T10:55:15;4.45;;;0.80;;
49061;SDS011;34873;49.142;9.118;2023-12-22T10:57:48;3.60;;;0.85;;
49061;SDS011;34873;49.142;9.118;2023-12-22T11:00:16;3.78;;;1.15;;
49061;SDS011;34873;49.142;9.118;2023-12-22T11:02:42;3.97;;;0.65;;
49061;SDS011;34873;49.142;9.118;2023-12-22T11:05:15;1.58;;;0.40;;
49061;SDS011;34873;49.142;9.118;2023-12-22T11:07:48;3.08;;;0.70;;
49061;SDS011;34873;49.142;9.118;2023-12-22T11:10:18;2.90;;;0.50;;
49061;SDS011;34873;49.142;9.118;2023-12-22T11:12:45;1.48;;;0.38;;
49061;SDS011;34873;49.142;9.118;2023-12-22T11:15:14;2.10;;;0.60;;
49061;SDS011;34873;49.142;9.118;2023-12-22T11:17:44;1.45;;;0.22;;
49061;SDS011;34873;49.142;9.118;2023-12-22T11:20:12;2.58;;;0.60;;
49061;SDS011;34873;49.142;9.118;2023-12-22T11:22:38;1.08;;;0.35;;
49061;SDS011;34873;49.142;9.118;2023-12-22T11:25:04;0.98;;;0.50;;
49061;SDS011;34873;49.142;9.118;2023-12-22T11:27:38;1.77;;;0.30;;
49061;SDS011;34873;49.142;9.118;2023-12-22T11:30:06;1.40;;;0.17;;
49061;SDS011;34873;49.142;9.118;2023-12-22T11:32:36;2.45;;;0.25;;
49061;SDS011;34873;49.142;9.118;2023-12-22T11:35:04;3.60;;;0.43;;
49061;SDS011;34873;49.142;9.118;2023-12-22T11:37:35;0.45;;;0.10;;
49061;SDS011;34873;49.142;9.118;2023-12-22T11:40:03;0.47;;;0.10;;
49061;SDS011;34873;49.142;9.118;2023-12-22T11:42:30;1.90;;;0.10;;
49061;SDS011;34873;49.142;9.118;2023-12-22T11:44:57;1.35;;;0.20;;
49061;SDS011;34873;49.142;9.118;2023-12-22T11:47:23;0.20;;;0.10;;
49061;SDS011;34873;49.142;9.118;2023-12-22T11:49:49;0.00;;;0.00;;
49061;SDS011;34873;49.142;9.118;2023-12-22T11:52:16;0.47;;;0.10;;
49061;SDS011;34873;49.142;9.118;2023-12-22T11:54:47;0.75;;;0.22;;
49061;SDS011;34873;49.142;9.118;2023-12-22T12:00:02;0.28;;;0.03;;
49061;SDS011;34873;49.142;9.118;2023-12-22T12:02:39;0.15;;;0.15;;
49061;SDS011;34873;49.142;9.118;2023-12-22T12:05:08;1.85;;;0.10;;
49061;SDS011;34873;49.142;9.118;2023-12-22T12:07:45;0.90;;;0.20;;
49061;SDS011;34873;49.142;9.118;2023-12-22T12:13:07;0.77;;;0.10;;
49061;SDS011;34873;49.142;9.118;2023-12-22T12:15:34;0.17;;;0.10;;
49061;SDS011;34873;49.142;9.118;2023-12-22T12:18:00;2.63;;;0.10;;
49061;SDS011;34873;49.142;9.118;2023-12-22T12:20:26;1.45;;;0.55;;
49061;SDS011;34873;49.142;9.118;2023-12-22T12:22:57;0.47;;;0.20;;
49061;SDS011;34873;49.142;9.118;2023-12-22T12:25:23;1.40;;;0.00;;
49061;SDS011;34873;49.142;9.118;2023-12-22T12:28:01;1.08;;;0.10;;
49061;SDS011;34873;49.142;9.118;2023-12-22T12:30:27;2.83;;;0.00;;
49061;SDS011;34873;49.142;9.118;2023-12-22T12:32:58;1.95;;;0.30;;
49061;SDS011;34873;49.142;9.118;2023-12-22T12:35:31;0.75;;;0.10;;
49061;SDS011;34873;49.142;9.118;2023-12-22T12:38:00;0.73;;;0.10;;
49061;SDS011;34873;49.142;9.118;2023-12-22T12:40:30;0.38;;;0.00;;
49061;SDS011;34873;49.142;9.118;2023-12-22T12:43:00;1.35;;;0.00;;
49061;SDS011;34873;49.142;9.118;2023-12-22T12:45:26;0.52;;;0.20;;
49061;SDS011;34873;49.142;9.118;2023-12-22T12:48:00;0.55;;;0.13;;
49061;SDS011;34873;49.142;9.118;2023-12-22T12:50:27;0.10;;;0.10;;
49061;SDS011;34873;49.142;9.118;2023-12-22T12:52:54;0.65;;;0.10;;
49061;SDS011;34873;49.142;9.118;2023-12-22T12:55:20;0.77;;;0.00;;
49061;SDS011;34873;49.142;9.118;2023-12-22T12:57:50;0.00;;;0.00;;
49061;SDS011;34873;49.142;9.118;2023-12-22T13:00:17;0.10;;;0.00;;
49061;SDS011;34873;49.142;9.118;2023-12-22T13:02:48;3.88;;;0.10;;
49061;SDS011;34873;49.142;9.118;2023-12-22T13:05:23;0.20;;;0.00;;
49061;SDS011;34873;49.142;9.118;2023-12-22T13:07:49;0.10;;;0.00;;
49061;SDS011;34873;49.142;9.118;2023-12-22T13:10:24;0.25;;;0.05;;
49061;SDS011;34873;49.142;9.118;2023-12-22T13:12:50;1.55;;;0.00;;
49061;SDS011;34873;49.142;9.118;2023-12-22T13:15:16;2.17;;;0.00;;
49061;SDS011;34873;49.142;9.118;2023-12-22T13:17:42;0.10;;;0.00;;
49061;SDS011;34873;49.142;9.118;2023-12-22T13:20:11;0.00;;;0.00;;
49061;SDS011;34873;49.142;9.118;2023-12-22T13:22:37;0.28;;;0.03;;
49061;SDS011;34873;49.142;9.118;2023-12-22T13:25:05;0.00;;;0.00;;
49061;SDS011;34873;49.142;9.118;2023-12-22T13:27:31;0.30;;;0.00;;
49061;SDS011;34873;49.142;9.118;2023-12-22T13:29:58;0.70;;;0.25;;
49061;SDS011;34873;49.142;9.118;2023-12-22T13:32:26;1.52;;;0.40;;
49061;SDS011;34873;49.142;9.118;2023-12-22T13:34:55;1.58;;;0.40;;
49061;SDS011;34873;49.142;9.118;2023-12-22T13:37:24;0.30;;;0.30;;
49061;SDS011;34873;49.142;9.118;2023-12-22T13:39:51;0.47;;;0.20;;
49061;SDS011;34873;49.142;9.118;2023-12-22T13:42:19;0.35;;;0.20;;
49061;SDS011;34873;49.142;9.118;2023-12-22T13:44:48;0.90;;;0.10;;
49061;SDS011;34873;49.142;9.118;2023-12-22T13:47:17;0.82;;;0.10;;
49061;SDS011;34873;49.142;9.118;2023-12-22T13:49:46;0.95;;;0.28;;
49061;SDS011;34873;49.142;9.118;2023-12-22T13:52:24;0.75;;;0.30;;
49061;SDS011;34873;49.142;9.118;2023-12-22T13:55:06;0.38;;;0.20;;
49061;SDS011;34873;49.142;9.118;2023-12-22T13:57:40;1.00;;;0.17;;
49061;SDS011;34873;49.142;9.118;2023-12-22T14:02:46;0.40;;;0.40;;
49061;SDS011;34873;49.142;9.118;2023-12-22T14:05:16;0.50;;;0.20;;
49061;SDS011;34873;49.142;9.118;2023-12-22T14:07:44;2.05;;;0.28;;
49061;SDS011;34873;49.142;9.118;2023-12-22T14:10:10;1.10;;;0.45;;
49061;SDS011;34873;49.142;9.118;2023-12-22T14:12:40;0.25;;;0.10;;
49061;SDS011;34873;49.142;9.118;2023-12-22T14:15:09;0.65;;;0.30;;
49061;SDS011;34873;49.142;9.118;2023-12-22T14:17:35;0.20;;;0.10;;
49061;SDS011;34873;49.142;9.118;2023-12-22T14:20:05;1.25;;;0.10;;
49061;SDS011;34873;49.142;9.118;2023-12-22T14:22:32;0.20;;;0.10;;
49061;SDS011;34873;49.142;9.118;2023-12-22T14:24:59;0.15;;;0.00;;
49061;SDS011;34873;49.142;9.118;2023-12-22T14:27:24;0.40;;;0.10;;
49061;SDS011;34873;49.142;9.118;2023-12-22T14:29:50;0.20;;;0.03;;
49061;SDS011;34873;49.142;9.118;2023-12-22T14:32:17;0.52;;;0.10;;
49061;SDS011;34873;49.142;9.118;2023-12-22T14:34:46;0.13;;;0.00;;
49061;SDS011;34873;49.142;9.118;2023-12-22T14:37:14;0.63;;;0.00;;
49061;SDS011;34873;49.142;9.118;2023-12-22T14:39:42;1.67;;;0.20;;
49061;SDS011;34873;49.142;9.118;2023-12-22T14:42:10;6.90;;;0.80;;
49061;SDS011;34873;49.142;9.118;2023-12-22T14:44:36;10.77;;;1.15;;
49061;SDS011;34873;49.142;9.118;2023-12-22T14:47:05;7.78;;;1.15;;
49061;SDS011;34873;49.142;9.118;2023-12-22T14:49:31;4.75;;;1.00;;
49061;SDS011;34873;49.142;9.118;2023-12-22T14:51:59;4.63;;;0.68;;
49061;SDS011;34873;49.142;9.118;2023-12-22T14:54:27;8.90;;;0.98;;
49061;SDS011;34873;49.142;9.118;2023-12-22T14:56:52;7.10;;;0.68;;
49061;SDS011;34873;49.142;9.118;2023-12-22T14:59:20;2.92;;;0.82;;
49061;SDS011;34873;49.142;9.118;2023-12-22T15:01:45;2.58;;;0.50;;
49061;SDS011;34873;49.142;9.118;2023-12-22T15:04:13;2.63;;;0.82;;